createdAt,value
2022-12-16T00:01:25.872Z,100460.75
2022-12-16T00:03:55.524Z,100458.53
2022-12-16T00:06:25.089Z,100452.28
2022-12-16T00:08:54.988Z,100450.94
2022-12-16T00:11:23.367Z,100448.00
2022-12-16T00:13:51.470Z,100446.03
2022-12-16T00:16:21.818Z,100441.56
2022-12-16T00:18:57.840Z,100444.69
2022-12-16T00:21:30.489Z,100444.94
2022-12-16T00:24:09.154Z,100449.63
2022-12-16T00:26:37.104Z,100455.25
2022-12-16T00:29:06.737Z,100454.34
2022-12-16T00:32:00.288Z,100451.00
2022-12-16T00:34:28.179Z,100453.00
2022-12-16T00:36:56.407Z,100459.94
2022-12-16T00:39:27.273Z,100457.25
2022-12-16T00:41:55.335Z,100457.69
2022-12-16T00:44:23.393Z,100462.63
2022-12-16T00:46:59.104Z,100455.47
2022-12-16T00:49:33.332Z,100454.59
2022-12-16T00:52:01.152Z,100474.69
2022-12-16T00:54:30.317Z,100459.06
2022-12-16T00:57:00.004Z,100463.09
2022-12-16T00:59:27.898Z,100465.34
2022-12-16T01:01:56.151Z,100435.22
2022-12-16T01:04:26.616Z,100465.13
2022-12-16T01:07:01.487Z,100455.06
2022-12-16T01:09:30.680Z,100469.16
2022-12-16T01:11:58.770Z,100472.50
2022-12-16T01:14:40.226Z,100477.91
2022-12-16T01:17:08.245Z,100477.00
2022-12-16T01:19:36.297Z,100479.47
2022-12-16T01:22:04.354Z,100480.59
2022-12-16T01:24:42.952Z,100487.72
2022-12-16T01:27:10.730Z,100495.78
2022-12-16T01:29:41.704Z,100492.66
2022-12-16T01:32:14.890Z,100494.66
2022-12-16T01:34:42.940Z,100492.66
2022-12-16T01:37:12.405Z,100509.84
2022-12-16T01:39:44.717Z,100507.84
2022-12-16T01:42:22.541Z,100515.44
2022-12-16T01:44:54.995Z,100507.84
2022-12-16T01:47:27.681Z,100511.63
2022-12-16T01:50:00.249Z,100491.31
2022-12-16T01:52:33.938Z,100506.97
2022-12-16T01:55:19.726Z,100507.41
2022-12-16T01:57:56.181Z,100513.22
2022-12-16T02:00:24.341Z,100510.53
2022-12-16T02:02:59.534Z,100497.56
2022-12-16T02:05:27.887Z,100503.59
2022-12-16T02:08:00.800Z,100512.09
2022-12-16T02:10:51.108Z,100507.63
2022-12-16T02:13:28.458Z,100508.28
2022-12-16T02:16:06.742Z,100502.47
2022-12-16T02:18:47.305Z,100506.06
2022-12-16T02:21:44.763Z,100499.38
2022-12-16T02:25:14.422Z,100503.16
2022-12-16T02:28:02.175Z,100520.38
2022-12-16T02:30:45.649Z,100513.88
2022-12-16T02:33:32.984Z,100505.59
2022-12-16T02:36:06.501Z,100507.84
2022-12-16T02:38:46.184Z,100511.19
2022-12-16T02:41:23.161Z,100511.66
2022-12-16T02:43:57.695Z,100514.97
2022-12-16T02:46:30.098Z,100512.31
2022-12-16T02:48:58.483Z,100506.97
2022-12-16T02:51:33.635Z,100507.88
2022-12-16T02:54:28.105Z,100505.63
2022-12-16T02:57:10.820Z,100504.94
2022-12-16T02:59:57.104Z,100508.72
2022-12-16T03:02:36.324Z,100504.72
2022-12-16T03:05:10.987Z,100511.88
2022-12-16T03:07:41.399Z,100513.66
2022-12-16T03:10:28.862Z,100514.13
2022-12-16T03:13:00.498Z,100505.19
2022-12-16T03:15:32.141Z,100513.19
2022-12-16T03:18:06.587Z,100505.19
2022-12-16T03:20:45.615Z,100514.53
2022-12-16T03:23:24.152Z,100508.50
2022-12-16T03:25:57.435Z,100508.94
2022-12-16T03:28:43.917Z,100508.72
2022-12-16T03:31:20.524Z,100508.09
2022-12-16T03:33:56.970Z,100515.22
2022-12-16T03:36:27.879Z,100518.13
2022-12-16T03:38:58.209Z,100520.81
2022-12-16T03:41:27.828Z,100519.47
2022-12-16T03:43:55.914Z,100514.53
2022-12-16T03:46:26.832Z,100525.72
2022-12-16T03:48:56.285Z,100524.38
2022-12-16T03:51:24.398Z,100519.91
2022-12-16T03:53:52.132Z,100522.59
2022-12-16T03:56:20.042Z,100515.88
2022-12-16T03:58:48.018Z,100526.63
2022-12-16T04:01:22.761Z,100522.78
2022-12-16T04:03:54.848Z,100523.91
2022-12-16T04:06:25.774Z,100517.88
2022-12-16T04:08:53.886Z,100531.25
2022-12-16T04:11:39.781Z,100526.13
2022-12-16T04:14:26.604Z,100527.03
2022-12-16T04:17:12.316Z,100524.81
2022-12-16T04:19:58.520Z,100531.53
2022-12-16T04:22:56.343Z,100520.31
2022-12-16T04:25:28.590Z,100532.63
2022-12-16T04:27:59.821Z,100533.72
2022-12-16T04:30:35.088Z,100531.94
2022-12-16T04:33:29.514Z,100537.97
2022-12-16T04:36:15.841Z,100544.88
2022-12-16T04:39:18.163Z,100552.44
2022-12-16T04:42:03.368Z,100547.78
2022-12-16T04:44:54.111Z,100555.81
2022-12-16T04:47:39.880Z,100552.94
2022-12-16T04:50:25.965Z,100555.81
2022-12-16T04:53:12.839Z,100548.94
2022-12-16T04:56:04.110Z,100553.63
2022-12-16T04:58:52.098Z,100548.47
2022-12-16T05:01:40.293Z,100552.03
2022-12-16T05:04:25.692Z,100556.97
2022-12-16T05:07:11.010Z,100564.31
2022-12-16T05:09:58.797Z,100560.75
2022-12-16T05:13:01.816Z,100570.16
2022-12-16T05:15:50.315Z,100565.91
2022-12-16T05:18:36.830Z,100562.28
2022-12-16T05:21:27.015Z,100571.22
2022-12-16T05:24:12.183Z,100573.00
2022-12-16T05:26:57.531Z,100578.34
2022-12-16T05:29:46.848Z,100575.47
2022-12-16T05:32:35.155Z,100585.97
2022-12-16T05:35:20.726Z,100542.13
2022-12-16T05:38:05.904Z,100572.97
2022-12-16T05:40:51.456Z,100578.31
2022-12-16T05:43:48.814Z,100584.13
2022-12-16T05:46:39.589Z,100593.94
2022-12-16T05:49:25.589Z,100595.69
2022-12-16T05:52:10.869Z,100594.84
2022-12-16T05:54:56.197Z,100602.00
2022-12-16T05:57:41.649Z,100602.91
2022-12-16T06:00:31.488Z,100609.41
2022-12-16T06:03:18.524Z,100610.75
2022-12-16T06:06:03.793Z,100621.72
2022-12-16T06:08:49.905Z,100625.94
2022-12-16T06:11:43.866Z,100629.28
2022-12-16T06:14:31.909Z,100630.16
2022-12-16T06:17:53.982Z,100633.88
2022-12-16T06:20:45.916Z,100644.75
2022-12-16T06:23:31.847Z,100665.69
2022-12-16T06:26:17.176Z,100657.13
2022-12-16T06:29:02.905Z,100663.81
2022-12-16T06:31:50.528Z,100649.50
2022-12-16T06:34:39.069Z,100656.13
2022-12-16T06:37:33.913Z,100674.81
2022-12-16T06:40:19.854Z,100685.13
2022-12-16T06:43:07.902Z,100684.72
2022-12-16T06:45:54.068Z,100689.63
2022-12-16T06:48:39.268Z,100693.69
2022-12-16T06:51:33.586Z,100688.75
2022-12-16T06:54:22.880Z,100707.06
2022-12-16T06:57:08.125Z,100714.34
2022-12-16T07:00:06.214Z,100672.63
2022-12-16T07:02:52.449Z,100725.44
2022-12-16T07:05:41.008Z,100731.19
2022-12-16T07:08:28.199Z,100733.50
2022-12-16T07:11:25.489Z,100722.66
2022-12-16T07:14:10.768Z,100739.72
2022-12-16T07:16:56.070Z,100745.31
2022-12-16T07:19:41.272Z,100742.31
2022-12-16T07:22:26.654Z,100755.00
2022-12-16T07:25:27.275Z,100748.44
2022-12-16T07:28:15.641Z,100753.22
2022-12-16T07:31:08.679Z,100753.72
2022-12-16T07:33:54.089Z,100733.75
2022-12-16T07:36:39.593Z,100762.72
2022-12-16T07:39:27.809Z,100771.78
2022-12-16T07:42:15.909Z,100774.72
2022-12-16T07:45:07.903Z,100778.78
2022-12-16T07:47:55.867Z,100778.13
2022-12-16T07:50:41.123Z,100787.34
2022-12-16T07:53:52.788Z,100798.06
2022-12-16T07:56:47.383Z,100792.25
2022-12-16T07:59:32.799Z,100807.63
2022-12-16T08:02:22.812Z,100803.59
2022-12-16T08:05:04.610Z,100821.03
2022-12-16T08:07:50.096Z,100813.66
2022-12-16T08:10:35.868Z,100812.13
2022-12-16T08:13:26.146Z,100818.69
2022-12-16T08:19:19.585Z,100824.94
2022-12-16T08:22:04.797Z,100825.81
2022-12-16T08:28:02.860Z,100839.72
2022-12-16T08:30:49.947Z,100841.72
2022-12-16T08:33:48.573Z,100846.88
2022-12-16T08:36:35.222Z,100841.50
2022-12-16T08:39:23.750Z,100850.69
2022-12-16T08:42:12.026Z,100860.56
2022-12-16T08:44:57.979Z,100874.22
2022-12-16T08:47:45.263Z,100870.44
2022-12-16T08:50:31.769Z,100878.50
2022-12-16T08:53:28.037Z,100879.84
2022-12-16T08:56:13.314Z,100874.91
2022-12-16T08:59:03.998Z,100888.59
2022-12-16T09:01:51.118Z,100882.31
2022-12-16T09:04:50.137Z,100883.19
2022-12-16T09:07:40.291Z,100888.78
2022-12-16T09:10:27.260Z,100888.06
2022-12-16T09:13:12.726Z,100888.72
2022-12-16T09:16:03.936Z,100895.88
2022-12-16T09:18:49.159Z,100883.72
2022-12-16T09:21:34.480Z,100893.31
2022-12-16T09:24:27.252Z,100886.78
2022-12-16T09:27:16.077Z,100899.31
2022-12-16T09:30:01.493Z,100901.81
2022-12-16T09:35:50.176Z,100902.59
2022-12-16T09:38:36.798Z,100911.25
2022-12-16T09:41:49.453Z,100912.72
2022-12-16T09:44:52.807Z,100905.06
2022-12-16T09:47:49.974Z,100906.22
2022-12-16T09:50:40.920Z,100914.59
2022-12-16T09:53:31.184Z,100915.25
2022-12-16T09:56:17.147Z,100919.34
2022-12-16T09:59:11.001Z,100917.06
2022-12-16T10:02:00.341Z,100929.81
2022-12-16T10:04:51.181Z,100928.00
2022-12-16T10:07:45.670Z,100914.88
2022-12-16T10:10:47.912Z,100925.03
2022-12-16T10:13:50.042Z,100918.50
2022-12-16T10:16:47.508Z,100925.31
2022-12-16T10:19:50.391Z,100923.06
2022-12-16T10:22:51.568Z,100931.78
2022-12-16T10:25:44.983Z,100926.13
2022-12-16T10:28:35.612Z,100921.59
2022-12-16T10:31:37.183Z,100925.22
2022-12-16T10:34:30.524Z,100924.16
2022-12-16T10:37:29.917Z,100919.88
2022-12-16T10:40:26.024Z,100921.28
2022-12-16T10:43:22.690Z,100892.28
2022-12-16T10:46:14.284Z,100932.28
2022-12-16T10:49:00.582Z,100928.56
2022-12-16T10:51:48.032Z,100931.28
2022-12-16T10:54:53.701Z,100920.16
2022-12-16T10:57:56.954Z,100910.59
2022-12-16T11:01:01.500Z,100895.44
2022-12-16T11:03:59.946Z,100939.16
2022-12-16T11:07:01.632Z,100940.31
2022-12-16T11:09:53.425Z,100917.44
2022-12-16T11:12:44.880Z,100933.97
2022-12-16T11:15:54.429Z,100937.59
2022-12-16T11:18:41.378Z,100940.94
2022-12-16T11:21:34.919Z,100949.22
2022-12-16T11:24:32.197Z,100948.13
2022-12-16T11:27:21.016Z,100947.31
2022-12-16T11:30:20.614Z,100949.78
2022-12-16T11:33:09.987Z,100939.66
2022-12-16T11:36:02.261Z,100951.47
2022-12-16T11:38:54.931Z,100952.13
2022-12-16T11:41:47.948Z,100956.03
2022-12-16T11:44:39.761Z,100954.78
2022-12-16T11:47:34.575Z,100947.03
2022-12-16T11:50:21.172Z,100951.78
2022-12-16T11:53:15.250Z,100948.28
2022-12-16T11:56:16.292Z,100956.28
2022-12-16T11:59:05.033Z,100954.75
2022-12-16T12:02:01.887Z,100924.88
2022-12-16T12:04:50.929Z,100952.69
2022-12-16T12:08:15.636Z,100952.97
2022-12-16T12:11:30.125Z,100955.81
2022-12-16T12:14:43.323Z,100951.22
2022-12-16T12:17:53.106Z,100962.13
2022-12-16T12:20:54.537Z,100966.22
2022-12-16T12:24:00.268Z,100969.97
2022-12-16T12:27:14.444Z,100975.00
2022-12-16T12:30:33.289Z,100980.34
2022-12-16T12:33:50.734Z,100979.31
2022-12-16T12:36:47.981Z,100981.81
2022-12-16T12:39:41.147Z,100988.13
2022-12-16T12:42:49.627Z,100994.41
2022-12-16T12:45:48.983Z,100992.81
2022-12-16T12:48:43.265Z,101001.00
2022-12-16T12:51:36.025Z,101004.28
2022-12-16T12:54:33.751Z,101007.19
2022-12-16T12:57:24.743Z,101007.59
2022-12-16T13:00:18.249Z,101008.09
2022-12-16T13:03:19.121Z,101008.25
2022-12-16T13:06:26.202Z,101012.91
2022-12-16T13:09:16.324Z,101014.19
2022-12-16T13:12:50.563Z,101005.84
2022-12-16T13:18:59.376Z,101016.75
2022-12-16T13:22:07.547Z,101025.25
2022-12-16T13:25:03.486Z,101022.16
2022-12-16T13:28:05.009Z,101029.44
2022-12-16T13:30:59.460Z,101028.66
2022-12-16T13:33:53.973Z,101029.59
2022-12-16T13:37:07.151Z,101034.78
2022-12-16T13:40:22.018Z,101033.47
2022-12-16T13:43:24.004Z,101044.19
2022-12-16T13:46:34.979Z,101045.25
2022-12-16T13:50:11.968Z,101041.69
2022-12-16T13:53:03.324Z,101042.00
2022-12-16T13:56:13.187Z,101046.06
2022-12-16T13:59:02.217Z,101047.72
2022-12-16T14:01:58.280Z,101046.56
2022-12-16T14:04:57.561Z,101042.66
2022-12-16T14:07:46.485Z,101048.28
2022-12-16T14:10:43.973Z,101060.81
2022-12-16T14:13:39.640Z,101059.91
2022-12-16T14:16:46.297Z,101067.56
2022-12-16T14:19:42.094Z,101075.09
2022-12-16T14:22:47.997Z,101070.03
2022-12-16T14:25:36.874Z,101084.78
2022-12-16T14:28:36.585Z,101083.88
2022-12-16T14:31:30.501Z,101087.88
2022-12-16T14:34:25.071Z,101092.75
2022-12-16T14:37:10.201Z,101090.47
2022-12-16T14:40:08.030Z,101090.16
2022-12-16T14:42:58.799Z,101102.13
2022-12-16T14:45:48.138Z,101098.84
2022-12-16T14:48:49.216Z,101110.84
2022-12-16T14:51:42.027Z,101112.59
2022-12-16T14:54:41.673Z,101106.72
2022-12-16T14:57:41.087Z,101115.72
2022-12-16T15:00:41.010Z,101117.78
2022-12-16T15:03:50.052Z,101118.06
2022-12-16T15:06:47.079Z,101119.66
2022-12-16T15:09:44.141Z,101132.22
2022-12-16T15:12:35.166Z,101127.69
2022-12-16T15:15:23.452Z,101138.00
2022-12-16T15:18:19.095Z,101141.97
2022-12-16T15:21:09.757Z,101148.25
2022-12-16T15:24:01.013Z,101110.72
2022-12-16T15:26:49.387Z,101143.44
2022-12-16T15:29:49.451Z,101131.13
2022-12-16T15:32:47.977Z,101146.91
2022-12-16T15:36:00.172Z,101159.75
2022-12-16T15:38:49.582Z,101163.13
2022-12-16T15:41:49.302Z,101160.72
2022-12-16T15:44:42.652Z,101175.81
2022-12-16T15:47:39.500Z,101170.88
2022-12-16T15:50:25.770Z,101183.22
2022-12-16T15:53:11.168Z,101156.56
2022-12-16T15:56:07.766Z,101183.22
2022-12-16T15:58:57.689Z,101177.34
2022-12-16T16:01:45.390Z,101165.41
2022-12-16T16:04:41.595Z,101172.31
2022-12-16T16:07:33.344Z,101189.34
2022-12-16T16:10:35.014Z,101193.88
2022-12-16T16:13:22.077Z,101191.88
2022-12-16T16:16:09.133Z,101189.19
2022-12-16T16:18:54.136Z,101194.09
2022-12-16T16:21:39.746Z,101198.09
2022-12-16T16:24:26.279Z,101205.72
2022-12-16T16:27:21.913Z,101200.25
2022-12-16T16:30:14.287Z,101205.22
2022-12-16T16:33:15.641Z,101204.28
2022-12-16T16:36:02.160Z,101206.25
2022-12-16T16:38:50.472Z,101210.34
2022-12-16T16:41:43.176Z,101215.78
2022-12-16T16:44:28.329Z,101216.03
2022-12-16T16:47:18.027Z,101215.13
2022-12-16T16:50:08.477Z,101220.78
2022-12-16T16:52:56.719Z,101227.06
2022-12-16T16:55:43.414Z,101232.66
2022-12-16T16:58:37.853Z,101227.72
2022-12-16T17:01:24.199Z,101232.41
2022-12-16T17:04:14.409Z,101235.09
2022-12-16T17:07:05.133Z,101232.38
2022-12-16T17:09:52.049Z,101234.41
2022-12-16T17:12:53.806Z,101246.78
2022-12-16T17:15:43.203Z,101241.66
2022-12-16T17:18:31.085Z,101242.78
2022-12-16T17:21:21.104Z,101243.00
2022-12-16T17:24:06.359Z,101255.16
2022-12-16T17:26:58.959Z,101257.81
2022-12-16T17:29:47.113Z,101261.84
2022-12-16T17:32:38.456Z,101256.03
2022-12-16T17:35:24.558Z,101256.44
2022-12-16T17:38:11.585Z,101251.03
2022-12-16T17:40:57.063Z,101269.47
2022-12-16T17:43:45.679Z,101269.91
2022-12-16T17:49:45.062Z,101284.53
2022-12-16T17:52:42.496Z,101282.97
2022-12-16T17:55:29.616Z,101298.44
2022-12-16T17:58:17.801Z,101294.22
2022-12-16T18:01:06.342Z,101295.81
2022-12-16T18:03:51.547Z,101295.59
2022-12-16T18:06:45.951Z,101297.63
2022-12-16T18:09:37.171Z,101303.97
2022-12-16T18:12:33.632Z,101302.00
2022-12-16T18:15:18.745Z,101302.88
2022-12-16T18:18:10.146Z,101300.19
2022-12-16T18:20:57.222Z,101313.22
2022-12-16T18:23:44.663Z,101318.81
2022-12-16T18:26:35.288Z,101318.38
2022-12-16T18:29:21.969Z,101323.75
2022-12-16T18:32:10.192Z,101320.59
2022-12-16T18:34:55.796Z,101326.47
2022-12-16T18:37:42.235Z,101328.44
2022-12-16T18:40:33.215Z,101329.34
2022-12-16T18:43:21.085Z,101329.34
2022-12-16T18:46:11.922Z,101350.28
2022-12-16T18:48:58.354Z,101337.00
2022-12-16T18:54:54.096Z,101341.28
2022-12-16T18:57:45.267Z,101331.88
2022-12-16T19:00:33.953Z,101350.09
2022-12-16T19:03:20.952Z,101349.16
2022-12-16T19:09:24.576Z,101351.91
2022-12-16T19:12:10.153Z,101367.72
2022-12-16T19:14:55.242Z,101371.34
2022-12-16T19:17:41.122Z,101374.72
2022-12-16T19:23:38.507Z,101373.94
2022-12-16T19:26:24.349Z,101375.06
2022-12-16T19:29:12.097Z,101393.94
2022-12-16T19:31:57.650Z,101398.47
2022-12-16T19:34:46.463Z,101396.66
2022-12-16T19:47:07.990Z,101398.69
2022-12-16T19:49:56.135Z,101410.59
2022-12-16T19:52:45.371Z,101419.78
2022-12-16T19:55:32.778Z,101418.44
2022-12-16T19:58:18.339Z,101433.47
2022-12-16T20:01:06.691Z,101427.63
2022-12-16T20:03:56.715Z,101426.72
2022-12-16T20:06:45.363Z,101429.38
2022-12-16T20:09:42.405Z,101432.53
2022-12-16T20:12:27.571Z,101430.81
2022-12-16T20:15:18.912Z,101435.97
2022-12-16T20:18:07.108Z,101442.06
2022-12-16T20:20:57.125Z,101436.41
2022-12-16T20:23:50.509Z,101439.78
2022-12-16T20:29:46.938Z,101446.72
2022-12-16T20:32:32.328Z,101446.47
2022-12-16T20:35:17.762Z,101441.53
2022-12-16T20:38:05.264Z,101441.09
2022-12-16T20:41:02.799Z,101455.72
2022-12-16T20:43:51.766Z,101454.41
2022-12-16T20:46:43.579Z,101449.69
2022-12-16T20:49:29.155Z,101457.59
2022-12-16T20:55:17.122Z,101465.00
2022-12-16T20:58:42.311Z,101470.59
2022-12-16T21:01:29.303Z,101477.38
2022-12-16T21:04:17.128Z,101475.78
2022-12-16T21:07:02.422Z,101482.09
2022-12-16T21:09:47.849Z,101485.91
2022-12-16T21:12:35.133Z,101472.66
2022-12-16T21:15:36.145Z,101479.84
2022-12-16T21:18:37.768Z,101487.28
2022-12-16T21:21:23.724Z,101484.81
2022-12-16T21:27:11.304Z,101484.84
2022-12-16T21:30:07.326Z,101484.13
2022-12-16T21:32:53.485Z,101496.50
2022-12-16T21:35:40.139Z,101501.94
2022-12-16T21:38:40.412Z,101482.56
2022-12-16T21:41:26.233Z,101512.97
2022-12-16T21:44:26.711Z,101505.97
2022-12-16T21:47:14.123Z,101527.09
2022-12-16T21:50:05.574Z,101527.31
2022-12-16T21:52:52.280Z,101535.00
2022-12-16T21:55:47.162Z,101521.03
2022-12-16T21:58:35.619Z,101524.66
2022-12-16T22:01:21.065Z,101530.94
2022-12-16T22:04:06.908Z,101533.41
2022-12-16T22:06:52.418Z,101536.56
2022-12-16T22:09:39.715Z,101537.47
2022-12-16T22:12:25.167Z,101543.53
2022-12-16T22:15:10.545Z,101537.00
2022-12-16T22:17:58.503Z,101533.19
2022-12-16T22:20:45.172Z,101538.13
2022-12-16T22:23:30.936Z,101541.53
2022-12-16T22:26:18.734Z,101541.09
2022-12-16T22:29:04.658Z,101543.56
2022-12-16T22:31:50.545Z,101538.34
2022-12-16T22:34:36.047Z,101545.34
2022-12-16T22:37:21.234Z,101537.47
2022-12-16T22:40:06.570Z,101554.13
2022-12-16T22:42:53.602Z,101534.13
2022-12-16T22:45:41.510Z,101542.19
2022-12-16T22:48:26.926Z,101542.41
2022-12-16T22:51:14.763Z,101550.53
2022-12-16T22:54:00.329Z,101555.25
2022-12-16T22:56:45.617Z,101550.53
2022-12-16T22:59:32.334Z,101546.44
2022-12-16T23:02:17.780Z,101551.63
2022-12-16T23:05:06.104Z,101548.25
2022-12-16T23:07:51.493Z,101553.16
2022-12-16T23:10:37.404Z,101557.69
2022-12-16T23:13:25.947Z,101557.47
2022-12-16T23:16:12.768Z,101561.50
2022-12-16T23:19:09.433Z,101563.78
2022-12-16T23:21:55.203Z,101571.41
2022-12-16T23:24:41.883Z,101570.97
2022-12-16T23:27:27.121Z,101566.03
2022-12-16T23:30:12.742Z,101571.88
2022-12-16T23:32:59.138Z,101567.13
2022-12-16T23:35:44.509Z,101575.63
2022-12-16T23:38:29.936Z,101567.53
2022-12-16T23:41:18.688Z,101575.63
2022-12-16T23:44:04.784Z,101574.97
2022-12-16T23:47:04.677Z,101576.53
2022-12-16T23:49:52.036Z,101573.34
2022-12-16T23:52:37.254Z,101571.13
2022-12-16T23:55:22.970Z,101565.94
2022-12-16T23:58:16.441Z,101566.41
